Airfield :
LOGIN :

Register | Disclaimer

   EN    FR    IT 

 










Legend :    VFR   Marginal VFR   IFR   Intensive IFR   Very Intensive IFR
Visi :
Ceiling :
>= 8 km
>= 3000ft
5 to 8 km
1000 to 3000 ft
1500m to 5 km
500 to 1000 ft
800 to 1500m
200 to 500 ft
< 800m
< 200 ft
Symbols :   Thunderstorms  Fog  Heavy snow  Heavy precipitations  Wind > 20 kt
SIGMETs :     Misc.  Thunderstorms  Icing  Turbulence  Mountain Waves  Volcanic Ashes







- Airport Elevation : 584 ft
- Download approach charts


LFPV - Villacoublay Vélizy

CURRENT METAR :
  • 240200Z AUTO 02008KT 350V050 4400 BR BKN008 BKN014 OVC028 08/07 Q1027 NOSIG

EXPIRED METARs :
  • 240130Z AUTO 02008KT 350V050 4600 BR BKN010 BKN014 OVC031 08/07 Q1028 NOSIG
  • 240100Z AUTO 03008KT 360V060 5000 BR BKN013 OVC030 09/06 Q1027 TEMPO BKN025
  • 240030Z AUTO 03007KT 6000 OVC030 09/06 Q1028 BECMG 3000 BR BKN008
  • 240000Z AUTO 04008KT 6000 OVC030 09/06 Q1028 NOSIG
  • 232330Z AUTO 03007KT 7000 OVC030 09/06 Q1028 NOSIG

TAF TAF LFPV
Valid from the 23 at 21:00 until the 24 at 21:00 UTC


232000Z 2321/2421 02005KT 7000 BKN025
BECMG 2402/2404 3000 BR BKN008
TEMPO 2404/2407 1500 BR OVC005
BECMG 2408/2410 9999 NSW BKN020
No reported NOTAMs for that airfield.



MET'MAP, your aeronautical weather chart ! - Copyright ORBIFLY December 2007 - Disclaimer

ORBIFLY MET'MAP TEAM :

Programming & Development : Alexandra Zaïnal
Concept & Development : Baudouin d'Aumeries
Co-Development & Prog : Marc-Olivier Méhu
Technical & hardware support : Manuel Goepfert

Contact : metmap@orbifly.com




SOURCES & CREDITS :

   NOAA